To NAV CANADA Home Page Login to a new session Search on AWWS site Disclaimer Vers la page française équivalente Tips FAQ What's new on the site To the Forecasts and Observations / NOTAM section To "File a Flight Plan" website Publications and other links Update of the User's profile FIC Telephone Numbers My Weather Data Folder Route Weather Data Regional Weather Data Local Weather Data To the Forecasts and Observations / NOTAM section
Request Generated 01/21/2021 at 01:17:27 UTC . Weather information available at that time is displayed.

METAR/TAF

If you find any discrepancies between the coded METAR/TAF and the plain language METAR/TAF please use the coded METAR/TAF. LWIS bulletins are not decoded in plain language.

LONDON/ON    

METAR CYXU 210100Z 21011G18KT 15SM FEW030 OVC140 M05/M08 A2992 RMK SC2AS6 PRESF SLP149=
METAR
LOCATION
CYXU - LONDON/ON
DATE - TIME
21 JANUARY 2021 - 0100 UTC
WIND
210 TRUE @ 11  KNOTS
GUSTS
18 KNOTS
VISIBILITY
15 STAT.  MILES
RUNWAY VISUAL RANGE
WEATHER
CLOUDINESS
FEW CLOUDS (1/8 - 2/8) 3000  FT
OVERCAST 14000  FT
TEMP / DEWPOINT
-5 C / -8 C
ALTIMETER
29.92 IN HG
RECENT WEATHER
WIND SHEAR

METAR CYXU 210000Z 22010KT 15SM FEW023 BKN030 M05/M09 A2997 RMK SC2SC5 SLP164=
METAR
LOCATION
CYXU - LONDON/ON
DATE - TIME
21 JANUARY 2021 - 0000 UTC
WIND
220 TRUE @ 10  KNOTS
VISIBILITY
15 STAT.  MILES
RUNWAY VISUAL RANGE
WEATHER
CLOUDINESS
FEW CLOUDS (1/8 - 2/8) 2300  FT
BROKEN CLOUDS (5/8 - 7/8) 3000  FT
TEMP / DEWPOINT
-5 C / -9 C
ALTIMETER
29.97 IN HG
RECENT WEATHER
WIND SHEAR

METAR CYXU 202300Z 19006KT 15SM BKN021 OVC140 M06/M10 A2997 RMK SC7AC1 SLP167=
METAR
LOCATION
CYXU - LONDON/ON
DATE - TIME
20 JANUARY 2021 - 2300 UTC
WIND
190 TRUE @ 6  KNOTS
VISIBILITY
15 STAT.  MILES
RUNWAY VISUAL RANGE
WEATHER
CLOUDINESS
BROKEN CLOUDS (5/8 - 7/8) 2100  FT
OVERCAST 14000  FT
TEMP / DEWPOINT
-6 C / -10 C
ALTIMETER
29.97 IN HG
RECENT WEATHER
WIND SHEAR

TAF CYXU 202338Z 2100/2124 21010G20KT P6SM BKN025 OVC140 TEMPO 2100/2105 OVC020 FM210500 21015G25KT P6SM OVC025 TEMPO 2105/2113 4SM -SN OVC020 FM211300 24015G25KT 2SM -SHSN OVC012 FM212200 26015G25KT 1SM -SHSN VV010 RMK NXT FCST BY 210600Z=
TAF
LOCATION

CYXU - LONDON/ON
VALIDITY [UTC]
20 JAN - 2338 to
22 JAN - 0000
 
TIMES
[UTC]
WIND
[DEGREES TRUE]
VISIBILITY
[STAT. MILES]
WEATHER
CLOUDINESS
[FEET AGL]
 
21 JAN - 0000 to
21 JAN - 0500
210 @ 10 KNOTS
GUSTS 20 KNOTS
6+
NIL
2500 BROKEN
14000 OVERCAST
TEMPORARY CHANGES
21 JAN - 0000 to
21 JAN - 0500
 
 
 
2000 OVERCAST
 
21 JAN - 0500 to
21 JAN - 1300
210 @ 15 KNOTS
GUSTS 25 KNOTS
6+
NIL
2500 OVERCAST
TEMPORARY CHANGES
21 JAN - 0500 to
21 JAN - 1300
 
4
LIGHT SNOW
2000 OVERCAST
 
21 JAN - 1300 to
21 JAN - 2200
240 @ 15 KNOTS
GUSTS 25 KNOTS
2
LIGHT SNOW SHOWER
1200 OVERCAST
 
21 JAN - 2200 to
22 JAN - 0000
260 @ 15 KNOTS
GUSTS 25 KNOTS
1
LIGHT SNOW SHOWER
VERTICAL VISIBILITY 1000
REMARKS
THE NEXT FORECAST WILL BE ISSUED BY 0600 UTC ON DAY 21


Your time UTC time
Weather data provided by Environment Canada and NAV CANADA